createdAt,value
2023-01-03T00:00:55.273Z,7.97
2023-01-03T00:03:27.957Z,8.04
2023-01-03T00:05:59.893Z,8.14
2023-01-03T00:08:32.005Z,8.31
2023-01-03T00:11:12.378Z,8.33
2023-01-03T00:13:45.349Z,8.41
2023-01-03T00:16:19.393Z,8.36
2023-01-03T00:18:51.407Z,8.29
2023-01-03T00:21:23.390Z,8.20
2023-01-03T00:23:56.517Z,8.34
2023-01-03T00:26:29.223Z,8.45
2023-01-03T00:29:01.424Z,8.40
2023-01-03T00:31:33.391Z,8.34
2023-01-03T00:34:05.861Z,8.52
2023-01-03T00:36:38.924Z,8.35
2023-01-03T00:39:12.244Z,8.38
2023-01-03T00:41:44.335Z,8.24
2023-01-03T00:44:16.608Z,8.53
2023-01-03T00:46:48.729Z,8.26
2023-01-03T00:49:20.967Z,8.41
2023-01-03T00:51:56.063Z,8.51
2023-01-03T00:54:28.024Z,8.45
2023-01-03T00:57:00.001Z,8.44
2023-01-03T00:59:31.985Z,8.15
2023-01-03T01:02:05.386Z,8.45
2023-01-03T01:04:37.366Z,8.27
2023-01-03T01:07:10.320Z,8.46
2023-01-03T01:09:42.199Z,8.24
2023-01-03T01:12:14.062Z,8.42
2023-01-03T01:14:46.028Z,8.25
2023-01-03T01:17:22.586Z,8.29
2023-01-03T01:19:55.299Z,8.15
2023-01-03T01:22:27.217Z,8.10
2023-01-03T01:24:59.056Z,8.15
2023-01-03T01:27:31.950Z,8.04
2023-01-03T01:30:04.442Z,8.22
2023-01-03T01:32:36.385Z,8.10
2023-01-03T01:35:08.857Z,8.14
2023-01-03T01:37:40.801Z,8.08
2023-01-03T01:40:13.216Z,8.18
2023-01-03T01:43:04.001Z,8.17
2023-01-03T01:45:36.401Z,8.27
2023-01-03T01:48:13.420Z,8.26
2023-01-03T01:50:50.422Z,8.28
2023-01-03T01:53:27.924Z,8.34
2023-01-03T01:56:15.777Z,8.31
2023-01-03T01:58:50.825Z,8.41
2023-01-03T02:01:24.931Z,8.36
2023-01-03T02:04:08.167Z,8.49
2023-01-03T02:06:40.805Z,8.19
2023-01-03T02:09:13.046Z,8.41
2023-01-03T02:12:13.711Z,8.45
2023-01-03T02:15:16.331Z,8.48
2023-01-03T02:18:30.063Z,8.57
2023-01-03T02:21:19.643Z,8.58
2023-01-03T02:24:10.521Z,8.60
2023-01-03T02:27:07.296Z,8.56
2023-01-03T02:29:48.219Z,8.60
2023-01-03T02:32:34.014Z,8.53
2023-01-03T02:35:23.551Z,8.47
2023-01-03T02:38:18.074Z,8.48
2023-01-03T02:41:18.244Z,8.41
2023-01-03T02:44:05.270Z,8.44
2023-01-03T02:46:47.117Z,8.47
2023-01-03T02:49:37.847Z,8.49
2023-01-03T02:52:29.167Z,8.52
2023-01-03T02:55:07.418Z,8.58
2023-01-03T02:57:45.911Z,8.59
2023-01-03T03:00:22.881Z,8.63
2023-01-03T03:03:01.082Z,8.67
2023-01-03T03:06:02.702Z,8.58
2023-01-03T03:08:34.713Z,8.76
2023-01-03T03:11:26.176Z,8.74
2023-01-03T03:14:10.022Z,8.73
2023-01-03T03:16:49.555Z,8.77
2023-01-03T03:19:55.605Z,8.88
2023-01-03T03:22:57.538Z,8.72
2023-01-03T03:25:43.289Z,8.80
2023-01-03T03:28:37.859Z,8.61
2023-01-03T03:31:23.606Z,8.76
2023-01-03T03:34:06.650Z,8.71
2023-01-03T03:37:03.499Z,8.81
2023-01-03T03:39:54.728Z,8.82
2023-01-03T03:42:56.147Z,8.84
2023-01-03T03:45:45.355Z,8.82
2023-01-03T03:48:20.234Z,8.85
2023-01-03T03:51:04.547Z,8.92
2023-01-03T03:53:39.488Z,8.72
2023-01-03T03:56:18.041Z,8.80
2023-01-03T03:58:55.841Z,8.83
2023-01-03T04:01:29.987Z,8.82
2023-01-03T04:04:08.244Z,8.84
2023-01-03T04:06:51.475Z,8.93
2023-01-03T04:09:23.466Z,8.81
2023-01-03T04:11:55.487Z,8.91
2023-01-03T04:14:27.466Z,8.80
2023-01-03T04:16:59.487Z,8.80
2023-01-03T04:19:31.467Z,8.81
2023-01-03T04:22:03.465Z,8.83
2023-01-03T04:24:35.445Z,8.81
2023-01-03T04:27:07.442Z,8.73
2023-01-03T04:29:39.856Z,8.71
2023-01-03T04:32:12.011Z,8.63
2023-01-03T04:34:44.040Z,8.83
2023-01-03T04:37:16.058Z,8.76
2023-01-03T04:39:48.109Z,8.81
2023-01-03T04:42:38.825Z,8.60
2023-01-03T04:45:11.761Z,8.89
2023-01-03T04:47:43.733Z,8.81
2023-01-03T04:50:15.950Z,8.66
2023-01-03T04:52:47.921Z,8.73
2023-01-03T04:55:20.231Z,8.70
2023-01-03T04:57:52.507Z,8.69
2023-01-03T05:00:24.467Z,8.62
2023-01-03T05:02:56.480Z,8.53
2023-01-03T05:05:28.446Z,8.37
2023-01-03T05:08:04.649Z,8.46
2023-01-03T05:10:39.266Z,8.55
2023-01-03T05:13:11.641Z,8.49
2023-01-03T05:15:44.060Z,8.44
2023-01-03T05:18:16.061Z,8.33
2023-01-03T05:21:06.816Z,8.31
2023-01-03T05:23:57.514Z,8.30
2023-01-03T05:26:29.512Z,8.27
2023-01-03T05:29:01.448Z,8.09
2023-01-03T05:31:33.540Z,8.32
2023-01-03T05:34:05.589Z,8.09
2023-01-03T05:36:37.754Z,8.18
2023-01-03T05:39:09.720Z,8.13
2023-01-03T05:42:00.065Z,8.05
2023-01-03T05:44:34.353Z,8.10
2023-01-03T05:47:06.325Z,7.83
2023-01-03T05:49:38.454Z,7.82
2023-01-03T05:52:10.359Z,7.83
2023-01-03T05:54:42.186Z,7.83
2023-01-03T05:57:14.254Z,7.74
2023-01-03T05:59:46.224Z,7.67
2023-01-03T06:02:18.220Z,7.73
2023-01-03T06:04:50.280Z,7.64
2023-01-03T06:07:22.263Z,7.38
2023-01-03T06:09:54.193Z,7.48
2023-01-03T06:12:30.378Z,7.63
2023-01-03T06:15:02.432Z,7.47
2023-01-03T06:17:53.004Z,7.37
2023-01-03T06:20:29.049Z,7.25
2023-01-03T06:23:00.994Z,7.19
2023-01-03T06:25:32.931Z,7.20
2023-01-03T06:28:04.925Z,7.17
2023-01-03T06:30:36.890Z,7.17
2023-01-03T06:33:08.830Z,7.13
2023-01-03T06:35:40.858Z,7.06
2023-01-03T06:38:12.793Z,7.05
2023-01-03T06:40:51.043Z,7.04
2023-01-03T06:43:22.950Z,7.01
2023-01-03T06:46:14.182Z,6.87
2023-01-03T06:49:05.619Z,7.10
2023-01-03T06:51:55.948Z,7.01
2023-01-03T06:54:30.915Z,7.19
2023-01-03T06:57:03.117Z,7.23
2023-01-03T06:59:35.076Z,7.18
2023-01-03T07:02:07.289Z,7.14
2023-01-03T07:04:39.435Z,7.30
2023-01-03T07:07:11.368Z,7.28
2023-01-03T07:09:43.326Z,7.23
2023-01-03T07:12:37.890Z,7.08
2023-01-03T07:15:10.514Z,7.29
2023-01-03T07:17:42.458Z,7.32
2023-01-03T07:20:14.458Z,7.30
2023-01-03T07:22:46.401Z,7.32
2023-01-03T07:25:18.464Z,7.33
2023-01-03T07:28:01.864Z,7.47
2023-01-03T07:30:39.681Z,7.56
2023-01-03T07:33:13.990Z,7.54
2023-01-03T07:35:46.398Z,7.50
2023-01-03T07:38:19.001Z,7.52
2023-01-03T07:40:50.919Z,7.49
2023-01-03T07:43:37.979Z,7.44
2023-01-03T07:46:23.032Z,7.60
2023-01-03T07:49:07.889Z,7.59
2023-01-03T07:51:43.081Z,7.54
2023-01-03T07:54:15.021Z,7.54
2023-01-03T07:56:46.939Z,7.59
2023-01-03T07:59:19.285Z,7.62
2023-01-03T08:01:51.363Z,7.70
2023-01-03T08:04:23.329Z,7.84
2023-01-03T08:06:55.285Z,7.80
2023-01-03T08:09:46.654Z,7.87
2023-01-03T08:12:37.148Z,7.75
2023-01-03T08:15:09.494Z,7.86
2023-01-03T08:17:41.426Z,7.93
2023-01-03T08:20:13.292Z,7.93
2023-01-03T08:22:45.198Z,8.16
2023-01-03T08:25:17.218Z,8.07
2023-01-03T08:27:50.498Z,7.96
2023-01-03T08:30:22.609Z,8.07
2023-01-03T08:32:55.808Z,8.24
2023-01-03T08:35:31.742Z,8.27
2023-01-03T08:38:06.260Z,8.34
2023-01-03T08:40:42.316Z,8.24
2023-01-03T08:43:16.191Z,8.22
2023-01-03T08:45:49.436Z,8.35
2023-01-03T08:48:23.419Z,8.20
2023-01-03T08:50:55.436Z,8.20
2023-01-03T08:53:30.156Z,8.24
2023-01-03T08:56:02.073Z,8.34
2023-01-03T08:58:34.419Z,8.30
2023-01-03T09:01:07.232Z,8.53
2023-01-03T09:03:39.451Z,8.42
2023-01-03T09:06:11.506Z,8.29
2023-01-03T09:08:43.630Z,8.44
2023-01-03T09:11:15.721Z,8.45
2023-01-03T09:13:47.716Z,8.46
2023-01-03T09:16:21.061Z,8.43
2023-01-03T09:18:53.021Z,8.51
2023-01-03T09:21:25.004Z,8.59
2023-01-03T09:23:57.084Z,8.65
2023-01-03T09:26:30.021Z,8.89
2023-01-03T09:29:02.275Z,9.09
2023-01-03T09:31:35.594Z,9.32
2023-01-03T09:34:07.648Z,9.13
2023-01-03T09:36:40.857Z,9.31
2023-01-03T09:39:12.915Z,9.05
2023-01-03T09:41:45.197Z,8.90
2023-01-03T09:44:17.388Z,8.81
2023-01-03T09:46:49.421Z,8.34
2023-01-03T09:49:21.398Z,8.40
2023-01-03T09:52:13.072Z,8.16
2023-01-03T09:55:04.226Z,8.28
2023-01-03T09:57:55.479Z,8.07
2023-01-03T10:00:57.489Z,8.23
2023-01-03T10:04:12.047Z,8.16
2023-01-03T10:07:17.168Z,8.13
2023-01-03T10:10:16.788Z,8.19
2023-01-03T10:13:16.180Z,8.30
2023-01-03T10:15:58.810Z,8.14
2023-01-03T10:18:55.582Z,8.14
2023-01-03T10:22:00.772Z,8.03
2023-01-03T10:24:41.648Z,7.83
2023-01-03T10:27:18.051Z,7.89
2023-01-03T10:29:54.362Z,7.88
2023-01-03T10:32:32.119Z,7.88
2023-01-03T10:35:16.919Z,7.63
2023-01-03T10:37:52.487Z,7.52
2023-01-03T10:40:42.281Z,7.69
2023-01-03T10:43:26.193Z,7.50
2023-01-03T10:46:04.730Z,7.43
2023-01-03T10:51:43.123Z,7.57
2023-01-03T10:54:18.245Z,7.70
2023-01-03T10:56:51.486Z,7.26
2023-01-03T10:59:31.908Z,7.44
2023-01-03T11:02:09.869Z,7.57
2023-01-03T11:04:42.823Z,7.41
2023-01-03T11:07:17.237Z,7.30
2023-01-03T11:09:54.750Z,7.43
2023-01-03T11:12:40.892Z,7.60
2023-01-03T11:15:18.999Z,7.38
2023-01-03T11:18:02.735Z,7.34
2023-01-03T11:20:49.101Z,7.21
2023-01-03T11:23:41.549Z,7.25
2023-01-03T11:26:50.783Z,7.38
2023-01-03T11:30:04.398Z,7.72
2023-01-03T11:32:44.121Z,7.99
2023-01-03T11:35:35.371Z,8.09
2023-01-03T11:38:28.681Z,7.86
2023-01-03T11:41:19.533Z,7.88
2023-01-03T11:44:09.871Z,7.69
2023-01-03T11:47:09.271Z,7.66
2023-01-03T11:50:08.455Z,7.63
2023-01-03T11:52:55.405Z,7.49
2023-01-03T11:56:04.851Z,7.45
2023-01-03T11:58:57.731Z,7.59
2023-01-03T12:01:42.925Z,7.23
2023-01-03T12:04:40.934Z,7.33
2023-01-03T12:07:47.214Z,7.30
2023-01-03T12:10:35.199Z,7.47
2023-01-03T12:13:13.064Z,7.31
2023-01-03T12:15:48.501Z,7.34
2023-01-03T12:18:37.626Z,7.33
2023-01-03T12:21:19.425Z,7.25
2023-01-03T12:23:57.086Z,7.24
2023-01-03T12:26:30.213Z,7.25
2023-01-03T12:29:09.525Z,7.16
2023-01-03T12:31:50.065Z,7.28
2023-01-03T12:34:34.409Z,7.33
2023-01-03T12:37:13.700Z,7.09
2023-01-03T12:40:01.994Z,7.31
2023-01-03T12:42:33.941Z,7.30
2023-01-03T12:45:09.518Z,7.31
2023-01-03T12:47:44.325Z,7.14
2023-01-03T12:50:33.645Z,7.00
2023-01-03T12:53:14.530Z,7.08
2023-01-03T12:55:46.279Z,7.04
2023-01-03T12:58:39.252Z,6.83
2023-01-03T13:01:40.007Z,6.81
2023-01-03T13:04:33.914Z,6.81
2023-01-03T13:07:30.028Z,6.78
2023-01-03T13:10:09.414Z,6.71
2023-01-03T13:12:48.844Z,6.66
2023-01-03T13:15:38.996Z,6.53
2023-01-03T13:18:37.400Z,6.43
2023-01-03T13:21:46.877Z,6.55
2023-01-03T13:24:46.352Z,6.45
2023-01-03T13:27:21.335Z,6.38
2023-01-03T13:29:53.561Z,6.41
2023-01-03T13:32:36.344Z,6.23
2023-01-03T13:35:16.232Z,6.38
2023-01-03T13:37:55.182Z,6.25
2023-01-03T13:41:08.007Z,6.28
2023-01-03T13:43:40.272Z,6.14
2023-01-03T13:46:20.441Z,6.00
2023-01-03T13:48:56.969Z,6.20
2023-01-03T13:51:38.072Z,6.18
2023-01-03T13:54:13.153Z,6.02
2023-01-03T13:56:45.090Z,6.13
2023-01-03T13:59:19.982Z,6.09
2023-01-03T14:02:10.223Z,5.87
2023-01-03T14:05:09.983Z,5.90
2023-01-03T14:08:00.438Z,5.83
2023-01-03T14:10:49.734Z,5.90
2023-01-03T14:13:33.626Z,5.88
2023-01-03T14:16:27.355Z,5.71
2023-01-03T14:19:06.957Z,5.72
2023-01-03T14:21:54.860Z,5.53
2023-01-03T14:24:32.562Z,5.50
2023-01-03T14:27:17.155Z,5.31
2023-01-03T14:29:52.692Z,5.50
2023-01-03T14:32:33.744Z,5.47
2023-01-03T14:35:06.890Z,5.42
2023-01-03T14:37:46.809Z,5.32
2023-01-03T14:40:20.159Z,5.38
2023-01-03T14:42:52.098Z,5.29
2023-01-03T14:45:24.089Z,5.13
2023-01-03T14:47:56.089Z,5.14
2023-01-03T14:50:30.284Z,5.09
2023-01-03T14:53:03.243Z,5.02
2023-01-03T14:55:35.302Z,4.98
2023-01-03T14:58:36.248Z,4.89
2023-01-03T15:01:10.344Z,4.86
2023-01-03T15:03:46.355Z,4.80
2023-01-03T15:06:26.769Z,4.77
2023-01-03T15:09:01.744Z,4.77
2023-01-03T15:11:56.703Z,4.66
2023-01-03T15:14:31.913Z,4.74
2023-01-03T15:17:10.048Z,4.77
2023-01-03T15:19:50.421Z,4.78
2023-01-03T15:22:25.293Z,4.68
2023-01-03T15:25:05.906Z,4.63
2023-01-03T15:27:37.826Z,4.57
2023-01-03T15:30:16.539Z,4.38
2023-01-03T15:32:54.681Z,4.60
2023-01-03T15:35:42.717Z,4.47
2023-01-03T15:38:17.653Z,4.44
2023-01-03T15:40:51.342Z,4.39
2023-01-03T15:43:31.832Z,4.32
2023-01-03T15:46:16.792Z,4.05
2023-01-03T15:48:55.844Z,4.21
2023-01-03T15:51:28.017Z,4.23
2023-01-03T15:54:00.053Z,4.19
2023-01-03T15:56:35.594Z,4.19
2023-01-03T15:59:09.839Z,4.09
2023-01-03T16:01:41.992Z,4.02
2023-01-03T16:04:14.152Z,3.98
2023-01-03T16:06:46.150Z,3.94
2023-01-03T16:09:18.180Z,3.80
2023-01-03T16:11:56.573Z,3.84
2023-01-03T16:14:35.579Z,3.88
2023-01-03T16:17:09.309Z,3.93
2023-01-03T16:19:41.459Z,3.84
2023-01-03T16:25:06.892Z,3.73
2023-01-03T16:27:38.877Z,3.63
2023-01-03T16:30:12.935Z,3.65
2023-01-03T16:32:45.005Z,3.59
2023-01-03T16:35:19.577Z,3.74
2023-01-03T16:37:51.600Z,3.19
2023-01-03T16:40:23.579Z,3.52
2023-01-03T16:42:55.608Z,3.61
2023-01-03T16:45:27.595Z,3.39
2023-01-03T16:47:59.844Z,3.58
2023-01-03T16:50:35.255Z,3.49
2023-01-03T16:53:09.604Z,3.53
2023-01-03T16:55:41.676Z,3.30
2023-01-03T16:58:16.192Z,3.26
2023-01-03T17:00:48.531Z,3.22
2023-01-03T17:03:20.988Z,3.06
2023-01-03T17:05:53.299Z,3.14
2023-01-03T17:08:39.961Z,3.29
2023-01-03T17:11:11.939Z,3.05
2023-01-03T17:13:47.807Z,2.98
2023-01-03T17:16:23.552Z,3.09
2023-01-03T17:18:56.154Z,3.16
2023-01-03T17:21:34.633Z,3.13
2023-01-03T17:24:12.554Z,3.11
2023-01-03T17:26:45.026Z,2.93
2023-01-03T17:29:21.064Z,3.03
2023-01-03T17:31:53.675Z,2.82
2023-01-03T17:34:31.233Z,3.00
2023-01-03T17:37:03.142Z,3.18
2023-01-03T17:39:35.046Z,3.12
2023-01-03T17:42:16.461Z,3.10
2023-01-03T17:45:09.471Z,3.36
2023-01-03T17:48:02.766Z,3.44
2023-01-03T17:50:34.769Z,3.40
2023-01-03T17:53:10.777Z,3.48
2023-01-03T17:55:45.015Z,3.31
2023-01-03T17:58:25.099Z,3.49
2023-01-03T18:00:57.669Z,3.30
2023-01-03T18:03:31.213Z,3.49
2023-01-03T18:06:12.567Z,3.46
2023-01-03T18:08:45.212Z,3.46
2023-01-03T18:11:25.825Z,3.34
2023-01-03T18:13:57.861Z,3.40
2023-01-03T18:16:30.470Z,3.29
2023-01-03T18:19:02.364Z,3.31
2023-01-03T18:21:34.867Z,3.48
2023-01-03T18:24:19.043Z,3.49
2023-01-03T18:26:54.274Z,3.59
2023-01-03T18:29:26.232Z,3.45
2023-01-03T18:31:58.469Z,3.52
2023-01-03T18:34:30.434Z,3.66
2023-01-03T18:37:02.501Z,3.35
2023-01-03T18:39:34.471Z,3.75
2023-01-03T18:42:24.974Z,3.81
2023-01-03T18:44:56.936Z,3.73
2023-01-03T18:47:28.874Z,3.86
2023-01-03T18:50:00.803Z,3.78
2023-01-03T18:52:39.037Z,3.95
2023-01-03T18:55:23.749Z,3.88
2023-01-03T18:57:59.101Z,3.89
2023-01-03T19:00:31.023Z,3.82
2023-01-03T19:03:03.289Z,3.83
2023-01-03T19:05:35.204Z,3.98
2023-01-03T19:08:09.331Z,4.07
2023-01-03T19:10:41.253Z,3.94
2023-01-03T19:13:26.272Z,4.07
2023-01-03T19:15:58.324Z,4.03
2023-01-03T19:18:30.307Z,4.08
2023-01-03T19:21:02.344Z,4.14
2023-01-03T19:23:34.280Z,3.95
2023-01-03T19:26:06.452Z,4.01
2023-01-03T19:28:40.769Z,3.99
2023-01-03T19:31:12.985Z,3.98
2023-01-03T19:33:44.926Z,3.89
2023-01-03T19:36:17.471Z,4.02
2023-01-03T19:38:50.294Z,3.93
2023-01-03T19:41:22.434Z,4.02
2023-01-03T19:43:54.569Z,3.99
2023-01-03T19:46:26.593Z,3.89
2023-01-03T19:48:58.774Z,3.98
2023-01-03T19:51:30.732Z,3.76
2023-01-03T19:54:02.674Z,3.99
2023-01-03T19:56:34.695Z,3.91
2023-01-03T19:59:08.149Z,3.84
2023-01-03T20:02:14.089Z,3.83
2023-01-03T20:04:33.017Z,3.89
2023-01-03T20:07:13.954Z,3.87
2023-01-03T20:09:45.858Z,3.84
2023-01-03T20:12:23.304Z,4.02
2023-01-03T20:15:00.019Z,3.78
2023-01-03T20:17:36.512Z,3.87
2023-01-03T20:20:11.651Z,3.85
2023-01-03T20:23:04.484Z,3.92
2023-01-03T20:25:37.456Z,3.61
2023-01-03T20:28:20.043Z,3.53
2023-01-03T20:30:51.884Z,3.76
2023-01-03T20:33:24.742Z,3.91
2023-01-03T20:36:16.235Z,3.76
2023-01-03T20:38:54.805Z,3.68
2023-01-03T20:41:36.920Z,3.76
2023-01-03T20:44:10.532Z,3.93
2023-01-03T20:46:42.677Z,3.50
2023-01-03T20:49:20.000Z,3.60
2023-01-03T20:51:53.040Z,3.43
2023-01-03T20:54:24.940Z,3.47
2023-01-03T20:56:56.917Z,3.40
2023-01-03T20:59:29.588Z,3.40
2023-01-03T21:02:01.654Z,3.26
2023-01-03T21:04:33.747Z,3.33
2023-01-03T21:07:11.307Z,3.56
2023-01-03T21:09:43.762Z,3.37
2023-01-03T21:12:16.332Z,3.39
2023-01-03T21:14:49.824Z,3.35
2023-01-03T21:17:21.813Z,3.34
2023-01-03T21:19:53.683Z,3.27
2023-01-03T21:22:25.664Z,3.30
2023-01-03T21:24:58.060Z,3.09
2023-01-03T21:27:30.480Z,3.11
2023-01-03T21:30:02.411Z,2.75
2023-01-03T21:32:34.264Z,3.10
2023-01-03T21:35:06.928Z,3.03
2023-01-03T21:37:38.873Z,2.98
2023-01-03T21:40:24.845Z,3.11
2023-01-03T21:43:04.440Z,3.03
2023-01-03T21:45:40.749Z,2.97
2023-01-03T21:48:19.217Z,2.88
2023-01-03T21:50:51.367Z,2.86
2023-01-03T21:53:23.634Z,2.93
2023-01-03T21:55:55.543Z,2.86
2023-01-03T21:58:28.251Z,2.92
2023-01-03T22:01:10.319Z,2.99
2023-01-03T22:04:01.332Z,2.73
2023-01-03T22:06:33.841Z,2.81
2023-01-03T22:09:06.533Z,2.82
2023-01-03T22:11:39.062Z,2.87
2023-01-03T22:14:11.068Z,2.89
2023-01-03T22:16:43.102Z,2.66
2023-01-03T22:19:15.065Z,3.02
2023-01-03T22:21:47.006Z,2.97
2023-01-03T22:24:18.963Z,2.98
2023-01-03T22:26:50.910Z,2.89
2023-01-03T22:29:22.867Z,2.92
2023-01-03T22:31:54.853Z,2.71
2023-01-03T22:34:26.889Z,2.70
2023-01-03T22:36:58.761Z,2.77
2023-01-03T22:39:30.746Z,2.79
2023-01-03T22:42:02.795Z,2.69
2023-01-03T22:44:34.812Z,2.72
2023-01-03T22:47:07.040Z,2.68
2023-01-03T22:49:40.126Z,2.62
2023-01-03T22:52:12.062Z,2.63
2023-01-03T22:54:44.171Z,2.60
2023-01-03T22:57:16.310Z,2.41
2023-01-03T22:59:48.258Z,2.06
2023-01-03T23:02:26.192Z,2.35
2023-01-03T23:05:00.201Z,2.18
2023-01-03T23:07:32.132Z,2.27
2023-01-03T23:10:04.336Z,2.13
2023-01-03T23:12:55.908Z,2.10
2023-01-03T23:15:31.126Z,2.07
2023-01-03T23:18:03.113Z,1.91
2023-01-03T23:20:35.823Z,2.11
2023-01-03T23:23:09.931Z,1.96
2023-01-03T23:25:41.934Z,1.90
2023-01-03T23:28:13.898Z,1.92
2023-01-03T23:30:45.899Z,1.77
2023-01-03T23:33:17.832Z,1.80
2023-01-03T23:35:50.327Z,1.87
2023-01-03T23:38:22.272Z,1.61
2023-01-03T23:40:54.232Z,1.58
2023-01-03T23:43:26.204Z,1.81
2023-01-03T23:45:58.867Z,1.72
2023-01-03T23:48:31.070Z,1.63
2023-01-03T23:51:04.875Z,1.57
2023-01-03T23:53:38.945Z,1.63
2023-01-03T23:56:17.121Z,1.54
2023-01-03T23:58:49.575Z,1.60
